Aviation Digital Data Service (ADDS)

Output produced by METARs form (0520 UTC 19 February 2019)
found at http://www.aviationweather.gov/metar/data/
 
Forecast for: LIPR (RIMINI (CIV/IT-A, IT)
Text: TAF LIPR 190200Z 1903/1912 VRB04KT 7000 NSC
Forecast period: 0300 to 1200 UTC 19 February 2019
Forecast type: FROM: standard forecast or significant change
Winds: variable direction winds at 5 MPH (4 knots; 2.1 m/s)
Visibility: 4 miles (7 km)
Ceiling: unknown
Clouds: missing
Weather: no significant weather forecast for this period